Becancour, Canada
Current Conditions -  °F | °C
As of 6:00 PM on Friday 31 Oct 2014 (Local Time) from CYRQ Reporting Station
Overcast Overcast  
Wind Chill: 34°   Ceiling: 13000
Heat Index: 37°   Visibility: 9mi
Dew Point: 28°   Wind: 5mph
Humidity: 70%   Direction: 360°N
Pressure: 30.09"   Gusts: NA
Location:  46.36°N, 72.44°W
Report Text: CYRQ 312200Z AUTO 36004KT 9SM FEW050 BKN130 OVC150 03/M02 A3009 RMK SLP193
Loading
Personal Weather Stations






























Interactive Weather Map
Tropical Storm Tracking
New forecast layout! Learn more

10-Day Weather Forecast

Advertisements
Track Severe Weather on mobile